sensor_id;sensor_type;location;lat;lon;timestamp;temperature;humidity
11083;DHT22;5595;50.186;8.468;2023-02-28T00:01:09;0.30;99.90
11083;DHT22;5595;50.186;8.468;2023-02-28T00:03:37;0.30;99.90
11083;DHT22;5595;50.186;8.468;2023-02-28T00:06:06;0.20;99.90
11083;DHT22;5595;50.186;8.468;2023-02-28T00:08:33;0.20;99.90
11083;DHT22;5595;50.186;8.468;2023-02-28T00:11:01;0.20;99.90
11083;DHT22;5595;50.186;8.468;2023-02-28T00:13:29;0.20;99.90
11083;DHT22;5595;50.186;8.468;2023-02-28T00:16:00;0.10;99.90
11083;DHT22;5595;50.186;8.468;2023-02-28T00:18:27;0.10;99.90
11083;DHT22;5595;50.186;8.468;2023-02-28T00:20:55;0.00;99.90
11083;DHT22;5595;50.186;8.468;2023-02-28T00:23:22;0.00;99.90
11083;DHT22;5595;50.186;8.468;2023-02-28T00:25:50;0.00;99.90
11083;DHT22;5595;50.186;8.468;2023-02-28T00:28:18;-0.10;99.90
11083;DHT22;5595;50.186;8.468;2023-02-28T00:30:45;0.30;99.90
11083;DHT22;5595;50.186;8.468;2023-02-28T00:33:12;0.00;99.90
11083;DHT22;5595;50.186;8.468;2023-02-28T00:35:39;-0.30;99.90
11083;DHT22;5595;50.186;8.468;2023-02-28T00:38:07;-0.30;99.90
11083;DHT22;5595;50.186;8.468;2023-02-28T00:40:34;-0.30;99.90
11083;DHT22;5595;50.186;8.468;2023-02-28T00:43:01;-0.90;99.90
11083;DHT22;5595;50.186;8.468;2023-02-28T00:45:29;-0.40;99.90
11083;DHT22;5595;50.186;8.468;2023-02-28T00:47:56;-0.40;99.90
11083;DHT22;5595;50.186;8.468;2023-02-28T00:50:23;-0.30;99.90
11083;DHT22;5595;50.186;8.468;2023-02-28T00:52:50;-0.40;99.90
11083;DHT22;5595;50.186;8.468;2023-02-28T00:55:18;0.20;99.90
11083;DHT22;5595;50.186;8.468;2023-02-28T00:57:45;-0.60;99.90
11083;DHT22;5595;50.186;8.468;2023-02-28T01:00:13;0.10;99.90
11083;DHT22;5595;50.186;8.468;2023-02-28T01:02:40;-0.30;99.90
11083;DHT22;5595;50.186;8.468;2023-02-28T01:05:07;-0.30;99.90
11083;DHT22;5595;50.186;8.468;2023-02-28T01:07:35;-0.30;99.90
11083;DHT22;5595;50.186;8.468;2023-02-28T01:10:01;-0.30;99.90
11083;DHT22;5595;50.186;8.468;2023-02-28T01:12:30;-0.40;99.90
11083;DHT22;5595;50.186;8.468;2023-02-28T01:14:57;-0.40;99.90
11083;DHT22;5595;50.186;8.468;2023-02-28T01:17:24;-0.30;99.90
11083;DHT22;5595;50.186;8.468;2023-02-28T01:19:53;-0.60;99.90
11083;DHT22;5595;50.186;8.468;2023-02-28T01:22:21;0.10;99.90
11083;DHT22;5595;50.186;8.468;2023-02-28T01:24:48;-0.60;99.90
11083;DHT22;5595;50.186;8.468;2023-02-28T01:27:16;-0.50;99.90
11083;DHT22;5595;50.186;8.468;2023-02-28T01:29:45;-0.70;99.90
11083;DHT22;5595;50.186;8.468;2023-02-28T01:32:12;-0.70;99.90
11083;DHT22;5595;50.186;8.468;2023-02-28T01:34:39;-0.80;99.90
11083;DHT22;5595;50.186;8.468;2023-02-28T01:37:06;-0.70;99.90
11083;DHT22;5595;50.186;8.468;2023-02-28T01:39:34;-0.70;99.90
11083;DHT22;5595;50.186;8.468;2023-02-28T01:42:01;-0.70;99.90
11083;DHT22;5595;50.186;8.468;2023-02-28T01:45:04;-0.30;99.90
11083;DHT22;5595;50.186;8.468;2023-02-28T01:47:35;-0.80;99.90
11083;DHT22;5595;50.186;8.468;2023-02-28T01:50:07;-0.80;99.90
11083;DHT22;5595;50.186;8.468;2023-02-28T01:52:34;-0.70;99.90
11083;DHT22;5595;50.186;8.468;2023-02-28T01:55:02;-0.90;99.90
11083;DHT22;5595;50.186;8.468;2023-02-28T01:57:34;-0.90;99.90
11083;DHT22;5595;50.186;8.468;2023-02-28T02:00:08;-0.90;99.90
11083;DHT22;5595;50.186;8.468;2023-02-28T02:02:36;-1.10;99.90
11083;DHT22;5595;50.186;8.468;2023-02-28T02:05:06;-1.00;99.90
11083;DHT22;5595;50.186;8.468;2023-02-28T02:07:35;-1.00;99.90
11083;DHT22;5595;50.186;8.468;2023-02-28T02:10:04;-1.00;99.90
11083;DHT22;5595;50.186;8.468;2023-02-28T02:12:41;-1.00;99.90
11083;DHT22;5595;50.186;8.468;2023-02-28T02:15:14;-1.30;99.90
11083;DHT22;5595;50.186;8.468;2023-02-28T02:17:45;-1.00;99.90
11083;DHT22;5595;50.186;8.468;2023-02-28T02:23:42;-1.10;99.90
11083;DHT22;5595;50.186;8.468;2023-02-28T02:26:34;-1.10;99.90
11083;DHT22;5595;50.186;8.468;2023-02-28T02:35:26;-1.10;99.90
11083;DHT22;5595;50.186;8.468;2023-02-28T02:38:00;-1.00;99.90
11083;DHT22;5595;50.186;8.468;2023-02-28T02:40:33;-1.20;99.90
11083;DHT22;5595;50.186;8.468;2023-02-28T02:43:06;-1.30;99.90
11083;DHT22;5595;50.186;8.468;2023-02-28T02:45:37;-1.20;99.90
11083;DHT22;5595;50.186;8.468;2023-02-28T02:48:08;-1.20;99.90
11083;DHT22;5595;50.186;8.468;2023-02-28T02:50:39;-1.30;99.90
11083;DHT22;5595;50.186;8.468;2023-02-28T02:53:08;-1.30;99.90
11083;DHT22;5595;50.186;8.468;2023-02-28T02:55:40;-1.30;99.90
11083;DHT22;5595;50.186;8.468;2023-02-28T02:58:10;-0.90;99.90
11083;DHT22;5595;50.186;8.468;2023-02-28T03:00:42;-1.30;99.90
11083;DHT22;5595;50.186;8.468;2023-02-28T03:03:12;-1.30;99.90
11083;DHT22;5595;50.186;8.468;2023-02-28T03:05:47;-1.50;99.90
11083;DHT22;5595;50.186;8.468;2023-02-28T03:08:14;-1.20;99.90
11083;DHT22;5595;50.186;8.468;2023-02-28T03:10:46;-1.40;99.90
11083;DHT22;5595;50.186;8.468;2023-02-28T03:13:38;-1.40;99.90
11083;DHT22;5595;50.186;8.468;2023-02-28T03:16:33;-1.40;99.90
11083;DHT22;5595;50.186;8.468;2023-02-28T03:19:23;-1.40;99.90
11083;DHT22;5595;50.186;8.468;2023-02-28T03:22:01;-1.50;99.90
11083;DHT22;5595;50.186;8.468;2023-02-28T03:24:37;-1.40;99.90
11083;DHT22;5595;50.186;8.468;2023-02-28T04:29:34;-1.80;99.90
11083;DHT22;5595;50.186;8.468;2023-02-28T04:32:01;-2.10;99.90
11083;DHT22;5595;50.186;8.468;2023-02-28T04:34:30;-1.80;99.90
11083;DHT22;5595;50.186;8.468;2023-02-28T04:36:57;-1.80;99.90
11083;DHT22;5595;50.186;8.468;2023-02-28T04:39:25;-1.80;99.90
11083;DHT22;5595;50.186;8.468;2023-02-28T04:41:52;-1.80;99.90
11083;DHT22;5595;50.186;8.468;2023-02-28T04:44:19;-1.70;99.90
11083;DHT22;5595;50.186;8.468;2023-02-28T04:46:48;-1.70;99.90
11083;DHT22;5595;50.186;8.468;2023-02-28T04:49:15;-1.70;99.90
11083;DHT22;5595;50.186;8.468;2023-02-28T04:51:42;-1.70;99.90
11083;DHT22;5595;50.186;8.468;2023-02-28T04:54:09;-1.70;99.90
11083;DHT22;5595;50.186;8.468;2023-02-28T04:56:36;-1.70;99.90
11083;DHT22;5595;50.186;8.468;2023-02-28T04:59:03;-1.70;99.90
11083;DHT22;5595;50.186;8.468;2023-02-28T05:01:31;-1.80;99.90
11083;DHT22;5595;50.186;8.468;2023-02-28T05:04:04;-1.70;99.90
11083;DHT22;5595;50.186;8.468;2023-02-28T05:06:32;-1.70;99.90
11083;DHT22;5595;50.186;8.468;2023-02-28T05:08:59;-1.70;99.90
11083;DHT22;5595;50.186;8.468;2023-02-28T05:11:29;-1.70;99.90
11083;DHT22;5595;50.186;8.468;2023-02-28T05:14:00;-1.70;99.90
11083;DHT22;5595;50.186;8.468;2023-02-28T05:16:27;-1.70;99.90
11083;DHT22;5595;50.186;8.468;2023-02-28T05:18:54;-1.60;99.90
11083;DHT22;5595;50.186;8.468;2023-02-28T05:21:28;-1.60;99.90
11083;DHT22;5595;50.186;8.468;2023-02-28T05:23:58;-1.50;99.90
11083;DHT22;5595;50.186;8.468;2023-02-28T05:26:26;-1.50;99.90
11083;DHT22;5595;50.186;8.468;2023-02-28T05:28:54;-1.40;99.90
11083;DHT22;5595;50.186;8.468;2023-02-28T05:31:21;-1.40;99.90
11083;DHT22;5595;50.186;8.468;2023-02-28T05:33:48;-1.30;99.90
11083;DHT22;5595;50.186;8.468;2023-02-28T05:36:15;-1.30;99.90
11083;DHT22;5595;50.186;8.468;2023-02-28T05:38:46;-1.20;99.90
11083;DHT22;5595;50.186;8.468;2023-02-28T05:41:13;-1.20;99.90
11083;DHT22;5595;50.186;8.468;2023-02-28T05:43:40;-1.20;99.90
11083;DHT22;5595;50.186;8.468;2023-02-28T05:46:08;-1.20;99.90
11083;DHT22;5595;50.186;8.468;2023-02-28T05:48:37;-1.20;99.90
11083;DHT22;5595;50.186;8.468;2023-02-28T05:51:06;-1.20;99.90
11083;DHT22;5595;50.186;8.468;2023-02-28T05:53:33;-1.20;99.90
11083;DHT22;5595;50.186;8.468;2023-02-28T05:56:02;-1.10;99.90
11083;DHT22;5595;50.186;8.468;2023-02-28T05:58:29;-1.10;99.90
11083;DHT22;5595;50.186;8.468;2023-02-28T06:00:57;-1.10;99.90
11083;DHT22;5595;50.186;8.468;2023-02-28T06:03:24;-1.20;99.90
11083;DHT22;5595;50.186;8.468;2023-02-28T06:05:51;-1.10;99.90
11083;DHT22;5595;50.186;8.468;2023-02-28T06:08:18;-1.10;99.90
11083;DHT22;5595;50.186;8.468;2023-02-28T06:10:45;-1.20;99.90
11083;DHT22;5595;50.186;8.468;2023-02-28T06:13:13;-1.30;99.90
11083;DHT22;5595;50.186;8.468;2023-02-28T06:15:40;-1.00;99.90
11083;DHT22;5595;50.186;8.468;2023-02-28T06:18:07;-1.30;99.90
11083;DHT22;5595;50.186;8.468;2023-02-28T06:20:34;-1.00;99.90
11083;DHT22;5595;50.186;8.468;2023-02-28T06:23:01;-1.50;99.90
11083;DHT22;5595;50.186;8.468;2023-02-28T06:25:29;-1.40;99.90
11083;DHT22;5595;50.186;8.468;2023-02-28T06:27:56;-1.40;99.90
11083;DHT22;5595;50.186;8.468;2023-02-28T06:30:24;-1.40;99.90
11083;DHT22;5595;50.186;8.468;2023-02-28T06:32:53;-1.30;99.90
11083;DHT22;5595;50.186;8.468;2023-02-28T06:35:20;-1.40;99.90
11083;DHT22;5595;50.186;8.468;2023-02-28T06:37:47;-0.60;99.90
11083;DHT22;5595;50.186;8.468;2023-02-28T06:40:14;-1.60;99.90
11083;DHT22;5595;50.186;8.468;2023-02-28T06:42:42;-1.30;99.90
11083;DHT22;5595;50.186;8.468;2023-02-28T06:45:10;-1.30;99.90
11083;DHT22;5595;50.186;8.468;2023-02-28T06:47:39;-1.20;99.90
11083;DHT22;5595;50.186;8.468;2023-02-28T06:50:09;-1.50;99.90
11083;DHT22;5595;50.186;8.468;2023-02-28T06:52:38;-1.10;99.90
11083;DHT22;5595;50.186;8.468;2023-02-28T06:55:07;-1.20;99.90
11083;DHT22;5595;50.186;8.468;2023-02-28T06:57:36;-1.10;99.90
11083;DHT22;5595;50.186;8.468;2023-02-28T07:00:05;-0.50;99.90
11083;DHT22;5595;50.186;8.468;2023-02-28T07:02:33;-1.10;99.90
11083;DHT22;5595;50.186;8.468;2023-02-28T07:05:02;-1.00;99.90
11083;DHT22;5595;50.186;8.468;2023-02-28T07:07:29;-1.00;99.90
11083;DHT22;5595;50.186;8.468;2023-02-28T07:09:57;-1.00;99.90
11083;DHT22;5595;50.186;8.468;2023-02-28T07:12:24;-1.00;99.90
11083;DHT22;5595;50.186;8.468;2023-02-28T07:14:51;-0.90;99.90
11083;DHT22;5595;50.186;8.468;2023-02-28T07:17:19;-0.30;99.90
11083;DHT22;5595;50.186;8.468;2023-02-28T07:19:46;-0.60;99.90
11083;DHT22;5595;50.186;8.468;2023-02-28T07:22:15;-0.10;99.90
11083;DHT22;5595;50.186;8.468;2023-02-28T07:24:41;-0.40;99.90
11083;DHT22;5595;50.186;8.468;2023-02-28T07:27:09;-0.30;99.90
11083;DHT22;5595;50.186;8.468;2023-02-28T07:29:36;-0.10;99.90
11083;DHT22;5595;50.186;8.468;2023-02-28T07:32:04;-0.20;99.90
11083;DHT22;5595;50.186;8.468;2023-02-28T07:34:31;-0.10;99.90
11083;DHT22;5595;50.186;8.468;2023-02-28T07:36:58;0.00;99.90
11083;DHT22;5595;50.186;8.468;2023-02-28T07:39:26;-0.10;99.90
11083;DHT22;5595;50.186;8.468;2023-02-28T07:41:53;0.00;99.90
11083;DHT22;5595;50.186;8.468;2023-02-28T07:44:20;0.30;99.90
11083;DHT22;5595;50.186;8.468;2023-02-28T07:46:47;0.10;99.90
11083;DHT22;5595;50.186;8.468;2023-02-28T07:49:14;0.20;99.90
11083;DHT22;5595;50.186;8.468;2023-02-28T07:51:41;0.30;99.90
11083;DHT22;5595;50.186;8.468;2023-02-28T07:54:08;0.30;99.90
11083;DHT22;5595;50.186;8.468;2023-02-28T07:56:36;0.50;99.90
11083;DHT22;5595;50.186;8.468;2023-02-28T07:59:06;1.30;99.90
11083;DHT22;5595;50.186;8.468;2023-02-28T08:01:33;0.40;99.90
11083;DHT22;5595;50.186;8.468;2023-02-28T08:04:00;0.40;99.90
11083;DHT22;5595;50.186;8.468;2023-02-28T08:06:27;0.50;99.90
11083;DHT22;5595;50.186;8.468;2023-02-28T08:08:54;0.60;99.90
11083;DHT22;5595;50.186;8.468;2023-02-28T08:11:22;0.70;99.90
11083;DHT22;5595;50.186;8.468;2023-02-28T08:13:51;0.70;99.90
11083;DHT22;5595;50.186;8.468;2023-02-28T08:16:18;0.70;99.90
11083;DHT22;5595;50.186;8.468;2023-02-28T08:18:48;0.70;99.90
11083;DHT22;5595;50.186;8.468;2023-02-28T08:21:16;0.80;99.90
11083;DHT22;5595;50.186;8.468;2023-02-28T08:23:59;0.80;99.90
11083;DHT22;5595;50.186;8.468;2023-02-28T08:29:09;0.80;99.90
11083;DHT22;5595;50.186;8.468;2023-02-28T08:31:43;0.80;99.90
11083;DHT22;5595;50.186;8.468;2023-02-28T08:34:15;0.90;99.90
11083;DHT22;5595;50.186;8.468;2023-02-28T08:36:43;0.60;99.90
11083;DHT22;5595;50.186;8.468;2023-02-28T08:39:12;-0.50;99.90
11083;DHT22;5595;50.186;8.468;2023-02-28T08:41:39;1.00;99.90
11083;DHT22;5595;50.186;8.468;2023-02-28T08:44:08;1.00;99.90
11083;DHT22;5595;50.186;8.468;2023-02-28T08:46:35;1.10;99.90
11083;DHT22;5595;50.186;8.468;2023-02-28T08:49:02;1.10;99.90
11083;DHT22;5595;50.186;8.468;2023-02-28T08:51:29;1.20;99.90
11083;DHT22;5595;50.186;8.468;2023-02-28T08:53:59;1.20;99.90
11083;DHT22;5595;50.186;8.468;2023-02-28T08:56:28;1.30;99.90
11083;DHT22;5595;50.186;8.468;2023-02-28T09:01:58;1.20;99.90
11083;DHT22;5595;50.186;8.468;2023-02-28T09:04:26;1.40;99.90
11083;DHT22;5595;50.186;8.468;2023-02-28T09:06:56;1.40;99.90
11083;DHT22;5595;50.186;8.468;2023-02-28T09:09:23;1.50;99.90
11083;DHT22;5595;50.186;8.468;2023-02-28T09:11:51;1.80;99.90
11083;DHT22;5595;50.186;8.468;2023-02-28T09:14:18;1.50;99.90
11083;DHT22;5595;50.186;8.468;2023-02-28T09:16:45;1.60;99.90
11083;DHT22;5595;50.186;8.468;2023-02-28T09:19:15;1.60;99.90
11083;DHT22;5595;50.186;8.468;2023-02-28T09:21:42;1.80;99.90
11083;DHT22;5595;50.186;8.468;2023-02-28T09:24:09;1.90;99.90
11083;DHT22;5595;50.186;8.468;2023-02-28T09:26:40;1.70;99.90
11083;DHT22;5595;50.186;8.468;2023-02-28T09:31:43;2.10;99.90
11083;DHT22;5595;50.186;8.468;2023-02-28T09:34:12;2.10;99.90
11083;DHT22;5595;50.186;8.468;2023-02-28T09:36:39;2.20;99.90
11083;DHT22;5595;50.186;8.468;2023-02-28T09:39:07;2.20;99.90
11083;DHT22;5595;50.186;8.468;2023-02-28T09:41:38;2.20;99.90
11083;DHT22;5595;50.186;8.468;2023-02-28T09:44:17;2.30;99.90
11083;DHT22;5595;50.186;8.468;2023-02-28T09:46:51;2.30;99.90
11083;DHT22;5595;50.186;8.468;2023-02-28T10:07:37;2.90;99.90
11083;DHT22;5595;50.186;8.468;2023-02-28T10:10:39;2.90;99.90
11083;DHT22;5595;50.186;8.468;2023-02-28T10:13:14;3.00;99.90
11083;DHT22;5595;50.186;8.468;2023-02-28T10:15:45;3.90;99.90
11083;DHT22;5595;50.186;8.468;2023-02-28T10:18:19;3.30;99.90
11083;DHT22;5595;50.186;8.468;2023-02-28T10:20:48;3.30;99.90
11083;DHT22;5595;50.186;8.468;2023-02-28T10:23:21;3.30;99.90
11083;DHT22;5595;50.186;8.468;2023-02-28T10:25:54;3.50;99.90
11083;DHT22;5595;50.186;8.468;2023-02-28T10:28:25;3.50;99.90
11083;DHT22;5595;50.186;8.468;2023-02-28T10:30:54;3.60;99.90
11083;DHT22;5595;50.186;8.468;2023-02-28T10:33:24;3.70;99.40
11083;DHT22;5595;50.186;8.468;2023-02-28T10:35:52;3.60;98.70
11083;DHT22;5595;50.186;8.468;2023-02-28T10:38:24;3.50;99.20
11083;DHT22;5595;50.186;8.468;2023-02-28T10:40:51;3.60;98.80
11083;DHT22;5595;50.186;8.468;2023-02-28T10:43:30;3.60;98.90
11083;DHT22;5595;50.186;8.468;2023-02-28T10:45:59;3.80;99.00
11083;DHT22;5595;50.186;8.468;2023-02-28T10:48:34;3.90;98.90
11083;DHT22;5595;50.186;8.468;2023-02-28T10:54:30;4.30;98.60
11083;DHT22;5595;50.186;8.468;2023-02-28T10:57:16;4.10;98.30
11083;DHT22;5595;50.186;8.468;2023-02-28T10:59:46;5.40;99.70
11083;DHT22;5595;50.186;8.468;2023-02-28T11:02:44;4.20;97.80
11083;DHT22;5595;50.186;8.468;2023-02-28T11:05:40;4.00;97.60
11083;DHT22;5595;50.186;8.468;2023-02-28T11:08:44;4.00;97.40
11083;DHT22;5595;50.186;8.468;2023-02-28T11:11:14;4.00;97.70
11083;DHT22;5595;50.186;8.468;2023-02-28T11:20:28;4.00;97.10
11083;DHT22;5595;50.186;8.468;2023-02-28T11:22:57;3.90;97.20
11083;DHT22;5595;50.186;8.468;2023-02-28T11:25:28;3.70;97.10
11083;DHT22;5595;50.186;8.468;2023-02-28T11:28:04;3.80;96.80
11083;DHT22;5595;50.186;8.468;2023-02-28T11:30:37;3.90;96.90
11083;DHT22;5595;50.186;8.468;2023-02-28T11:33:25;4.20;97.30
11083;DHT22;5595;50.186;8.468;2023-02-28T11:35:55;4.60;97.30
11083;DHT22;5595;50.186;8.468;2023-02-28T12:05:24;3.60;94.40
11083;DHT22;5595;50.186;8.468;2023-02-28T12:37:46;4.20;94.20
11083;DHT22;5595;50.186;8.468;2023-02-28T12:40:21;4.30;94.40
11083;DHT22;5595;50.186;8.468;2023-02-28T12:42:51;4.20;93.80
11083;DHT22;5595;50.186;8.468;2023-02-28T12:45:20;4.10;93.90
11083;DHT22;5595;50.186;8.468;2023-02-28T12:47:52;4.20;93.90
11083;DHT22;5595;50.186;8.468;2023-02-28T12:50:23;4.00;93.60
11083;DHT22;5595;50.186;8.468;2023-02-28T12:52:56;4.00;93.60
11083;DHT22;5595;50.186;8.468;2023-02-28T12:55:31;4.10;93.90
11083;DHT22;5595;50.186;8.468;2023-02-28T12:58:08;4.00;94.10
11083;DHT22;5595;50.186;8.468;2023-02-28T13:04:42;4.10;94.30
11083;DHT22;5595;50.186;8.468;2023-02-28T13:13:42;4.10;94.00
11083;DHT22;5595;50.186;8.468;2023-02-28T13:16:14;4.20;93.80
11083;DHT22;5595;50.186;8.468;2023-02-28T13:25:50;4.30;93.90
11083;DHT22;5595;50.186;8.468;2023-02-28T13:32:33;4.30;93.60
11083;DHT22;5595;50.186;8.468;2023-02-28T13:35:36;4.40;93.50
11083;DHT22;5595;50.186;8.468;2023-02-28T13:38:17;4.50;93.90
11083;DHT22;5595;50.186;8.468;2023-02-28T13:40:48;4.60;93.70
11083;DHT22;5595;50.186;8.468;2023-02-28T13:43:17;4.60;93.50
11083;DHT22;5595;50.186;8.468;2023-02-28T13:46:05;4.60;93.60
11083;DHT22;5595;50.186;8.468;2023-02-28T13:48:35;4.80;93.90
11083;DHT22;5595;50.186;8.468;2023-02-28T13:51:38;4.70;93.60
11083;DHT22;5595;50.186;8.468;2023-02-28T13:54:28;4.70;93.30
11083;DHT22;5595;50.186;8.468;2023-02-28T13:57:07;4.60;92.60
11083;DHT22;5595;50.186;8.468;2023-02-28T13:59:45;4.50;93.00
11083;DHT22;5595;50.186;8.468;2023-02-28T14:02:35;4.40;92.90
11083;DHT22;5595;50.186;8.468;2023-02-28T14:05:17;4.10;93.00
11083;DHT22;5595;50.186;8.468;2023-02-28T14:08:04;4.40;93.40
11083;DHT22;5595;50.186;8.468;2023-02-28T14:10:41;4.50;93.70
11083;DHT22;5595;50.186;8.468;2023-02-28T14:16:12;4.50;93.20
11083;DHT22;5595;50.186;8.468;2023-02-28T14:25:09;4.40;93.40
11083;DHT22;5595;50.186;8.468;2023-02-28T14:41:52;4.40;93.80
11083;DHT22;5595;50.186;8.468;2023-02-28T14:44:31;4.00;93.50
11083;DHT22;5595;50.186;8.468;2023-02-28T14:47:01;4.40;93.90
11083;DHT22;5595;50.186;8.468;2023-02-28T14:49:35;4.50;94.10
11083;DHT22;5595;50.186;8.468;2023-02-28T14:52:17;4.50;93.80
11083;DHT22;5595;50.186;8.468;2023-02-28T14:54:52;4.50;93.50
11083;DHT22;5595;50.186;8.468;2023-02-28T14:57:31;4.40;93.50
11083;DHT22;5595;50.186;8.468;2023-02-28T15:03:30;4.30;93.80
11083;DHT22;5595;50.186;8.468;2023-02-28T15:09:18;4.40;94.00
11083;DHT22;5595;50.186;8.468;2023-02-28T15:12:02;4.30;93.80
11083;DHT22;5595;50.186;8.468;2023-02-28T16:09:44;3.20;95.50
11083;DHT22;5595;50.186;8.468;2023-02-28T16:12:12;3.50;95.80
11083;DHT22;5595;50.186;8.468;2023-02-28T16:14:40;3.10;95.50
11083;DHT22;5595;50.186;8.468;2023-02-28T16:17:16;3.10;95.70
11083;DHT22;5595;50.186;8.468;2023-02-28T16:19:44;3.10;95.90
11083;DHT22;5595;50.186;8.468;2023-02-28T16:22:11;3.10;96.00
11083;DHT22;5595;50.186;8.468;2023-02-28T16:24:38;3.10;96.10
11083;DHT22;5595;50.186;8.468;2023-02-28T16:27:09;3.40;96.30
11083;DHT22;5595;50.186;8.468;2023-02-28T16:29:44;3.00;96.10
11083;DHT22;5595;50.186;8.468;2023-02-28T16:32:12;3.10;96.30
11083;DHT22;5595;50.186;8.468;2023-02-28T16:34:40;2.80;96.20
11083;DHT22;5595;50.186;8.468;2023-02-28T16:37:11;2.90;96.40
11083;DHT22;5595;50.186;8.468;2023-02-28T16:39:42;2.80;96.40
11083;DHT22;5595;50.186;8.468;2023-02-28T16:42:15;2.20;96.10
11083;DHT22;5595;50.186;8.468;2023-02-28T16:44:43;2.80;96.60
11083;DHT22;5595;50.186;8.468;2023-02-28T16:47:10;2.70;96.60
11083;DHT22;5595;50.186;8.468;2023-02-28T16:49:38;2.70;96.60
11083;DHT22;5595;50.186;8.468;2023-02-28T16:52:08;2.60;96.60
11083;DHT22;5595;50.186;8.468;2023-02-28T16:54:36;2.60;96.70
11083;DHT22;5595;50.186;8.468;2023-02-28T16:57:03;2.50;96.80
11083;DHT22;5595;50.186;8.468;2023-02-28T16:59:32;2.40;96.80
11083;DHT22;5595;50.186;8.468;2023-02-28T17:01:59;2.40;96.90
11083;DHT22;5595;50.186;8.468;2023-02-28T17:04:26;2.30;97.20
11083;DHT22;5595;50.186;8.468;2023-02-28T17:06:54;2.30;97.00
11083;DHT22;5595;50.186;8.468;2023-02-28T17:09:22;2.30;97.10
11083;DHT22;5595;50.186;8.468;2023-02-28T17:11:50;2.20;97.10
11083;DHT22;5595;50.186;8.468;2023-02-28T17:14:18;2.20;97.20
11083;DHT22;5595;50.186;8.468;2023-02-28T17:16:47;2.10;97.20
11083;DHT22;5595;50.186;8.468;2023-02-28T17:19:15;2.00;97.30
11083;DHT22;5595;50.186;8.468;2023-02-28T17:21:44;2.00;97.40
11083;DHT22;5595;50.186;8.468;2023-02-28T17:24:13;2.20;97.60
11083;DHT22;5595;50.186;8.468;2023-02-28T17:26:43;1.90;97.60
11083;DHT22;5595;50.186;8.468;2023-02-28T17:29:14;2.30;97.80
11083;DHT22;5595;50.186;8.468;2023-02-28T17:31:42;1.80;97.70
11083;DHT22;5595;50.186;8.468;2023-02-28T17:34:12;2.20;97.90
11083;DHT22;5595;50.186;8.468;2023-02-28T17:36:43;1.80;97.80
11083;DHT22;5595;50.186;8.468;2023-02-28T17:39:12;1.80;97.90
11083;DHT22;5595;50.186;8.468;2023-02-28T17:41:40;1.70;97.90
11083;DHT22;5595;50.186;8.468;2023-02-28T17:44:07;1.70;98.00
11083;DHT22;5595;50.186;8.468;2023-02-28T17:46:41;1.70;98.10
11083;DHT22;5595;50.186;8.468;2023-02-28T17:52:40;1.70;98.20
11083;DHT22;5595;50.186;8.468;2023-02-28T17:55:11;1.50;98.20
11083;DHT22;5595;50.186;8.468;2023-02-28T18:18:37;1.40;98.70
11083;DHT22;5595;50.186;8.468;2023-02-28T18:21:09;1.60;99.10
11083;DHT22;5595;50.186;8.468;2023-02-28T18:23:41;1.30;99.20
11083;DHT22;5595;50.186;8.468;2023-02-28T18:26:20;1.20;99.30
11083;DHT22;5595;50.186;8.468;2023-02-28T18:33:58;1.30;99.40
11083;DHT22;5595;50.186;8.468;2023-02-28T18:36:30;2.40;99.90
11083;DHT22;5595;50.186;8.468;2023-02-28T18:39:04;1.30;99.90
11083;DHT22;5595;50.186;8.468;2023-02-28T18:41:34;1.50;99.80
11083;DHT22;5595;50.186;8.468;2023-02-28T19:00:25;1.20;99.90
11083;DHT22;5595;50.186;8.468;2023-02-28T19:02:54;1.30;99.90
11083;DHT22;5595;50.186;8.468;2023-02-28T19:05:28;2.00;99.90
11083;DHT22;5595;50.186;8.468;2023-02-28T19:08:03;2.30;99.90
11083;DHT22;5595;50.186;8.468;2023-02-28T19:10:37;1.30;99.90
11083;DHT22;5595;50.186;8.468;2023-02-28T19:13:07;2.10;99.90
11083;DHT22;5595;50.186;8.468;2023-02-28T19:15:36;3.30;99.90
11083;DHT22;5595;50.186;8.468;2023-02-28T19:18:03;2.30;99.90
11083;DHT22;5595;50.186;8.468;2023-02-28T19:20:39;1.10;99.90
11083;DHT22;5595;50.186;8.468;2023-02-28T19:23:10;0.80;99.90
11083;DHT22;5595;50.186;8.468;2023-02-28T19:28:36;0.40;99.90
11083;DHT22;5595;50.186;8.468;2023-02-28T19:31:16;0.40;99.90
11083;DHT22;5595;50.186;8.468;2023-02-28T20:31:33;0.60;99.90
11083;DHT22;5595;50.186;8.468;2023-02-28T20:34:04;0.50;99.90
11083;DHT22;5595;50.186;8.468;2023-02-28T20:36:39;0.60;99.90
11083;DHT22;5595;50.186;8.468;2023-02-28T20:49:49;0.50;99.90
11083;DHT22;5595;50.186;8.468;2023-02-28T20:52:20;0.40;99.90
11083;DHT22;5595;50.186;8.468;2023-02-28T20:54:50;-0.60;99.90
11083;DHT22;5595;50.186;8.468;2023-02-28T20:57:17;1.00;99.90
11083;DHT22;5595;50.186;8.468;2023-02-28T20:59:50;2.20;99.90
11083;DHT22;5595;50.186;8.468;2023-02-28T21:02:18;-0.40;99.90
11083;DHT22;5595;50.186;8.468;2023-02-28T21:04:52;0.40;99.90
11083;DHT22;5595;50.186;8.468;2023-02-28T21:13:41;0.40;99.90
11083;DHT22;5595;50.186;8.468;2023-02-28T21:16:18;1.70;99.90
11083;DHT22;5595;50.186;8.468;2023-02-28T21:31:45;0.40;99.90
11083;DHT22;5595;50.186;8.468;2023-02-28T21:34:12;0.30;99.90
11083;DHT22;5595;50.186;8.468;2023-02-28T21:40:12;0.30;99.90
11083;DHT22;5595;50.186;8.468;2023-02-28T21:42:49;1.00;99.90
11083;DHT22;5595;50.186;8.468;2023-02-28T21:49:00;-0.50;99.90
11083;DHT22;5595;50.186;8.468;2023-02-28T21:51:29;0.30;99.90
11083;DHT22;5595;50.186;8.468;2023-02-28T21:53:57;0.40;99.90
11083;DHT22;5595;50.186;8.468;2023-02-28T21:56:27;-0.40;99.90
11083;DHT22;5595;50.186;8.468;2023-02-28T22:01:38;0.30;99.90
11083;DHT22;5595;50.186;8.468;2023-02-28T22:04:15;1.50;99.90
11083;DHT22;5595;50.186;8.468;2023-02-28T22:09:36;0.30;99.90
11083;DHT22;5595;50.186;8.468;2023-02-28T22:12:08;0.30;99.90
11083;DHT22;5595;50.186;8.468;2023-02-28T22:36:30;0.10;99.90
11083;DHT22;5595;50.186;8.468;2023-02-28T23:36:11;0.00;99.90
